Historyczne dane pomiarowe

Dodano dane terminowe – wersja testowa.

Dane z okresu 1951-2019

Wersja bazy: 1.34 [2019-03-16, lista zmian], aktualizacja planowana na 2019-04-15

Dane meteo z obszaru Polski uzyskane na podstawie danych udostępnionych przez Instytut Meteorologii i Gospodarki Wodnej – Państwowy Instytut Badawczy.

 

Wybierz Datę:    

       

TemperaturaWilgotnośćWiatrCiśnienieOpadyŚniegCzas trwania zjawisk
 Stacja t tx tn tng RH VA  wxwx mslp ppp RRR   cm mm wxwxwxwxwxwxwx
1994-08-14 13.1 17.5 9.4- 77.8- 4.0 7.0---- 1.3------------
1994-08-13 16.6 22.0 13.0- 83.8- 5.7 6.3---- 2.7------------
1994-08-12 18.6 24.5 14.0- 74.5- 3.3 2.0---- 0.0------------
1994-08-11 20.3 25.5 14.5- 61.8- 2.0 3.7---- 0.0------------
1994-08-10 19.7 26.5 11.9- 71.8- 1.7 1.0---- 0.0------------
1994-08-09 19.7 25.5 15.5- 84.3- 2.7 0.3---- 5.8------------
1994-08-08 21.8 26.5 16.0- 68.3- 4.0 2.7---- 0.0------------
1994-08-07 22.1 28.0 16.5- 63.3- 2.0 2.3---- 0.0------------
1994-08-06 23.7 30.9 17.6- 61.0- 1.7 3.0---- 0.0------------
1994-08-05 25.0 32.0 16.5- 62.5- 7.0 2.3---- 0.0------------
1994-08-04 22.4 28.9 15.0- 68.0- 1.0 3.0---- 0.0------------
1994-08-03 23.3 28.5 19.6- 75.3- 3.0 5.0---- 0.0------------
1994-08-02 26.4 34.5 18.1- 55.0- 0.3 3.0---- 0.0------------
1994-08-01 28.0 35.5 17.6- 52.8- 0.0 2.7---- 0.0------------
1994-07-31 28.1 36.5 18.1- 51.3- 0.7 2.7---- 0.0------------
1994-07-30 28.0 35.5 17.6- 47.8- 0.3 1.3---- 0.0------------
1994-07-29 26.8 35.0 15.0- 53.3- 0.7 0.7---- 0.0------------
1994-07-28 26.9 34.5 15.5- 49.3- 0.3 0.7---- 0.0------------
1994-07-27 26.3 34.5 16.0- 54.0- 0.3 1.0---- 0.0------------
1994-07-26 25.5 33.5 15.0- 54.8- 0.3 2.0---- 0.0------------
1994-07-25 24.7 31.4 14.5- 51.8- 0.7 2.3---- 0.0------------
1994-07-24 23.5 30.4 15.5- 48.0- 0.0 2.0---- 0.0------------
1994-07-23 21.3 28.9 10.4- 60.0- 0.7 1.7---- 0.0------------
1994-07-22 20.3 27.5 11.4- 58.8- 0.7 3.0---- 0.0------------
1994-07-21 19.4 29.4 8.0- 64.0- 0.0 3.0---- 0.0------------
1994-07-20 18.3 25.0 8.9- 60.0- 0.3 2.7---- 0.0------------
1994-07-19 17.3 23.0 10.4- 62.0- 1.7 4.7---- 0.0------------
1994-07-18 18.2 24.0 13.0- 63.8- 2.0 2.3---- 0.0------------
1994-07-17 20.7 25.0 15.5- 71.8- 1.7 1.7---- 0.0------------
1994-07-16 22.2 27.5 16.5- 71.8- 1.7 4.3---- 3.0------------
1994-07-15 24.4 31.4 17.6- 70.0- 3.0 1.7---- 0.4------------
1994-07-14 23.5 30.9 16.5- 66.3- 2.7 3.0---- 0.0------------
1994-07-13 25.0 30.9 17.0- 55.5- 1.7 1.7---- 0.0------------
1994-07-12 23.1 29.4 14.5- 59.5- 1.7 3.0---- 0.0------------
1994-07-11 21.4 28.5 13.0- 58.5- 0.3 3.0---- 0.0------------
1994-07-10 19.9 27.5 10.9- 64.0- 1.3 1.7---- 0.0------------
1994-07-09 16.7 22.0 11.9- 76.3- 3.3 3.0---- 0.0------------
1994-07-08 14.7 22.4 13.5- 93.5- 5.7 2.7---- 16.0------------
1994-07-07 18.3 25.0 9.4- 59.5- 1.3 1.7---- 0.0------------
1994-07-06 18.2 25.0 10.4- 61.3- 1.3 2.3---- 0.0------------
1994-07-05 17.0 24.0 9.4- 62.3- 2.7 3.7---- 0.0------------
1994-07-04 19.7 25.5 11.9- 56.5- 0.7 3.7---- 0.0------------
1994-07-03 18.2 24.5 8.9- 53.8- 1.0 1.7---- 0.0------------
1994-07-02 16.7 23.5 7.0- 67.3- 0.0 2.3---- 0.0------------
1994-07-01 16.3 22.0 10.4- 68.8- 0.7 3.7---- 0.0------------
1994-06-30 19.1 28.7 17.6- 69.8- 2.7 5.7---- 0.0------------
1994-06-29 24.1 32.0 14.5- 65.0- 0.3 1.7---- 7.2------------
1994-06-28 21.6 28.9 11.4- 59.8- 0.0 1.7---- 0.0------------
1994-06-27 21.9 28.1 15.5- 70.8- 0.7 3.0---- 0.0------------
1994-06-26 22.0 30.4 11.9- 51.5- 0.3 3.3---- 0.0------------
1994-06-25 15.4 23.5 4.6- 60.5- 0.0 2.3---- 0.0------------
1994-06-24 13.6 18.5 8.0- 62.8- 2.3 5.7---- 0.0------------
1994-06-23 14.0 19.2 10.9- 59.8- 3.0 9.0---- 0.1------------
1994-06-22 18.8 24.3 15.0- 69.3- 4.0 5.0---- 0.0------------
1994-06-21 14.7 22.0 6.0- 65.5- 1.3 3.7---- 0.0------------
1994-06-20 14.6 18.0 11.4- 66.8- 2.0 5.0---- 0.0------------
1994-06-19 13.9 18.5 10.4- 87.0- 6.0 5.0---- 1.3------------
1994-06-18 10.9 17.0 5.1- 79.5- 3.3 3.7---- 5.5------------
1994-06-17 9.4 13.5 6.5- 76.0- 4.7 6.3---- 0.9------------
1994-06-16 10.3 13.4 8.5- 81.8- 5.7 4.3---- 6.8------------
449.3 ms

 

Źródłem pochodzenia danych jest Instytut Meteorologii i Gospodarki Wodnej – Państwowy Instytut Badawczy. Dane Instytutu Meteorologii i Gospodarki Wodnej – Państwowego Instytutu Badawczego zostały przetworzone.

Dane źródłowe można odnaleźć na stronie https://dane.imgw.pl